createdAt,value
2023-05-19T00:00:21.080Z,88587.16
2023-05-19T00:03:06.361Z,88588.81
2023-05-19T00:05:51.141Z,88574.44
2023-05-19T00:08:36.253Z,88575.13
2023-05-19T00:11:21.231Z,88574.22
2023-05-19T00:14:06.370Z,88576.13
2023-05-19T00:16:51.279Z,88570.91
2023-05-19T00:19:36.340Z,88565.84
2023-05-19T00:22:21.313Z,88571.22
2023-05-19T00:25:06.316Z,88565.41
2023-05-19T00:27:51.243Z,88567.25
2023-05-19T00:30:36.254Z,88568.81
2023-05-19T00:33:21.399Z,88564.97
2023-05-19T00:36:06.374Z,88562.38
2023-05-19T00:38:51.415Z,88562.38
2023-05-19T00:41:36.598Z,88563.50
2023-05-19T00:44:21.492Z,88557.56
2023-05-19T00:47:06.616Z,88558.63
2023-05-19T00:49:51.493Z,88552.84
2023-05-19T00:52:36.415Z,88557.34
2023-05-19T00:55:21.255Z,88552.13
2023-05-19T00:58:06.247Z,88558.75
2023-05-19T01:00:51.188Z,88558.06
2023-05-19T01:03:36.381Z,88556.84
2023-05-19T01:06:21.223Z,88552.25
2023-05-19T01:09:06.209Z,88551.88
2023-05-19T01:11:51.164Z,88554.97
2023-05-19T01:14:36.220Z,88556.00
2023-05-19T01:17:21.302Z,88557.75
2023-05-19T01:20:06.261Z,88556.63
2023-05-19T01:22:51.547Z,88562.94
2023-05-19T01:25:36.441Z,88556.19
2023-05-19T01:28:21.394Z,88565.50
2023-05-19T01:31:06.437Z,88562.03
2023-05-19T01:33:51.374Z,88566.38
2023-05-19T01:36:36.436Z,88562.38
2023-05-19T01:39:21.281Z,88562.38
2023-05-19T01:42:06.351Z,88562.16
2023-05-19T01:44:51.158Z,88552.59
2023-05-19T01:47:36.085Z,88559.72
2023-05-19T01:50:20.989Z,88554.16
2023-05-19T01:53:05.971Z,88549.78
2023-05-19T01:55:50.949Z,88548.38
2023-05-19T01:58:35.901Z,88544.75
2023-05-19T02:01:21.053Z,88548.97
2023-05-19T02:04:06.030Z,88541.63
2023-05-19T02:06:51.029Z,88542.31
2023-05-19T02:09:36.027Z,88545.13
2023-05-19T02:12:21.216Z,88537.31
2023-05-19T02:15:06.115Z,88532.69
2023-05-19T02:17:51.135Z,88532.16
2023-05-19T02:20:36.022Z,88534.06
2023-05-19T02:23:20.927Z,88539.97
2023-05-19T02:26:05.973Z,88531.97
2023-05-19T02:28:50.995Z,88535.41
2023-05-19T02:31:35.968Z,88528.47
2023-05-19T02:34:21.020Z,88528.69
2023-05-19T02:37:06.140Z,88527.97
2023-05-19T02:39:51.078Z,88523.38
2023-05-19T02:42:36.018Z,88512.53
2023-05-19T02:45:21.216Z,88519.78
2023-05-19T02:48:06.105Z,88515.78
2023-05-19T02:50:51.184Z,88515.09
2023-05-19T02:53:36.094Z,88511.72
2023-05-19T02:56:21.219Z,88511.72
2023-05-19T02:59:06.130Z,88513.41
2023-05-19T03:01:51.221Z,88515.53
2023-05-19T03:04:36.178Z,88515.53
2023-05-19T03:07:21.125Z,88510.13
2023-05-19T03:10:06.202Z,88507.03
2023-05-19T03:12:51.152Z,88511.22
2023-05-19T03:15:36.289Z,88510.50
2023-05-19T03:18:21.237Z,88507.41
2023-05-19T03:21:06.168Z,88509.47
2023-05-19T03:23:51.060Z,88502.56
2023-05-19T03:26:36.070Z,88503.94
2023-05-19T03:29:21.092Z,88499.25
2023-05-19T03:32:05.999Z,88502.38
2023-05-19T03:34:51.197Z,88498.00
2023-05-19T03:37:36.079Z,88496.19
2023-05-19T03:40:21.195Z,88497.94
2023-05-19T03:43:06.181Z,88503.72
2023-05-19T03:45:51.276Z,88508.34
2023-05-19T03:48:36.328Z,88508.47
2023-05-19T03:51:21.314Z,88512.28
2023-05-19T03:54:06.244Z,88510.38
2023-05-19T03:56:51.229Z,88514.38
2023-05-19T03:59:36.238Z,88510.19
2023-05-19T04:02:21.112Z,88506.38
2023-05-19T04:05:06.153Z,88509.47
2023-05-19T04:07:51.053Z,88518.19
2023-05-19T04:10:36.086Z,88513.19
2023-05-19T04:13:21.035Z,88517.34
2023-05-19T04:16:05.936Z,88520.69
2023-05-19T04:18:50.970Z,88518.41
2023-05-19T04:21:35.886Z,88520.47
2023-05-19T04:24:20.876Z,88515.47
2023-05-19T04:27:05.744Z,88513.56
2023-05-19T04:29:50.839Z,88516.75
2023-05-19T04:32:37.369Z,88518.84
2023-05-19T04:35:22.426Z,88523.84
2023-05-19T04:38:07.702Z,88521.44
2023-05-19T04:40:52.678Z,88516.97
2023-05-19T04:43:37.717Z,88526.06
2023-05-19T04:46:22.704Z,88524.41
2023-05-19T04:49:07.847Z,88524.41
2023-05-19T04:51:55.591Z,88529.13
2023-05-19T04:54:40.779Z,88529.63
2023-05-19T04:57:25.921Z,88525.63
2023-05-19T05:00:10.894Z,88524.09
2023-05-19T05:02:55.969Z,88522.06
2023-05-19T05:05:40.979Z,88530.13
2023-05-19T05:08:25.821Z,88527.50
2023-05-19T05:11:10.869Z,88524.78
2023-05-19T05:13:55.856Z,88536.53
2023-05-19T05:16:41.010Z,88533.16
2023-05-19T05:19:26.033Z,88536.00
2023-05-19T05:22:11.121Z,88533.53
2023-05-19T05:24:56.115Z,88535.22
2023-05-19T05:27:41.111Z,88534.91
2023-05-19T05:30:26.229Z,88528.34
2023-05-19T05:33:11.392Z,88523.34
2023-05-19T05:35:56.299Z,88531.75
2023-05-19T05:38:41.352Z,88524.50
2023-05-19T05:41:26.555Z,88529.09
2023-05-19T05:44:11.523Z,88531.94
2023-05-19T05:46:56.517Z,88520.47
2023-05-19T05:49:41.453Z,88523.47
2023-05-19T05:52:26.388Z,88526.31
2023-05-19T05:55:11.361Z,88528.09
2023-05-19T05:57:56.196Z,88533.41
2023-05-19T06:00:41.359Z,88519.38
2023-05-19T06:03:26.340Z,88516.09
2023-05-19T06:06:11.349Z,88522.06
2023-05-19T06:08:56.328Z,88520.44
2023-05-19T06:11:41.348Z,88527.19
2023-05-19T06:14:26.287Z,88531.66
2023-05-19T06:17:11.128Z,88526.53
2023-05-19T06:19:56.250Z,88519.28
2023-05-19T06:22:41.174Z,88526.00
2023-05-19T06:25:26.163Z,88527.06
2023-05-19T06:28:11.053Z,88530.50
2023-05-19T06:30:56.089Z,88528.31
2023-05-19T06:33:40.937Z,88528.59
2023-05-19T06:36:26.143Z,88528.63
2023-05-19T06:39:10.992Z,88525.97
2023-05-19T06:41:55.793Z,88524.09
2023-05-19T06:44:40.783Z,88525.00
2023-05-19T06:47:25.698Z,88518.03
2023-05-19T06:50:10.778Z,88531.56
2023-05-19T06:52:55.650Z,88530.66
2023-05-19T06:55:54.312Z,88530.84
2023-05-19T06:58:42.770Z,88536.88
2023-05-19T07:01:27.702Z,88531.00
2023-05-19T07:04:13.031Z,88525.97
2023-05-19T07:06:57.800Z,88528.59
2023-05-19T07:09:42.640Z,88529.97
2023-05-19T07:12:27.410Z,88526.28
2023-05-19T07:15:12.558Z,88525.53
2023-05-19T07:17:57.569Z,88526.47
2023-05-19T07:20:42.562Z,88520.91
2023-05-19T07:23:27.699Z,88522.50
2023-05-19T07:26:12.697Z,88523.06
2023-05-19T07:28:57.798Z,88521.09
2023-05-19T07:31:42.834Z,88521.91
2023-05-19T07:34:27.827Z,88519.53
2023-05-19T07:37:12.791Z,88507.13
2023-05-19T07:39:57.936Z,88512.53
2023-05-19T07:42:42.914Z,88508.22
2023-05-19T07:45:27.877Z,88512.78
2023-05-19T07:48:13.116Z,88512.38
2023-05-19T07:50:57.993Z,88502.06
2023-05-19T07:53:43.016Z,88511.19
2023-05-19T07:56:27.992Z,88505.31
2023-05-19T07:59:12.883Z,88503.28
2023-05-19T08:01:57.837Z,88504.41
2023-05-19T08:04:42.945Z,88503.69
2023-05-19T08:07:27.883Z,88501.19
2023-05-19T08:10:12.857Z,88509.13
2023-05-19T08:12:58.030Z,88495.28
2023-05-19T08:15:43.030Z,88492.06
2023-05-19T08:18:27.974Z,88489.41
2023-05-19T08:21:12.732Z,88492.19
2023-05-19T08:23:57.806Z,88495.22
2023-05-19T08:26:42.852Z,88491.38
2023-05-19T08:29:27.911Z,88492.72
2023-05-19T08:32:13.489Z,88492.47
2023-05-19T08:34:58.503Z,88486.41
2023-05-19T08:37:43.568Z,88484.41
2023-05-19T08:40:28.401Z,88491.59
2023-05-19T08:43:13.393Z,88490.06
2023-05-19T08:45:58.321Z,88486.03
2023-05-19T08:48:43.082Z,88485.34
2023-05-19T08:51:28.109Z,88478.13
2023-05-19T08:54:13.088Z,88477.03
2023-05-19T08:56:58.046Z,88470.44
2023-05-19T08:59:43.006Z,88469.19
2023-05-19T09:02:28.088Z,88468.22
2023-05-19T09:05:12.995Z,88464.25
2023-05-19T09:07:57.901Z,88466.19
2023-05-19T09:10:42.982Z,88454.09
2023-05-19T09:13:28.026Z,88454.81
2023-05-19T09:16:13.142Z,88448.47
2023-05-19T09:18:57.960Z,88445.78
2023-05-19T09:21:44.528Z,88443.44
2023-05-19T09:24:29.353Z,88454.97
2023-05-19T09:27:14.365Z,88443.69
2023-05-19T09:29:59.365Z,88438.25
2023-05-19T09:32:44.770Z,88445.09
2023-05-19T09:35:29.785Z,88439.72
2023-05-19T09:38:14.683Z,88437.19
2023-05-19T09:40:59.793Z,88437.34
2023-05-19T09:43:44.539Z,88439.84
2023-05-19T09:46:29.572Z,88432.47
2023-05-19T09:49:14.412Z,88433.03
2023-05-19T09:51:59.362Z,88426.53
2023-05-19T09:54:44.290Z,88428.91
2023-05-19T09:57:29.466Z,88425.44
2023-05-19T10:00:14.372Z,88431.81
2023-05-19T10:02:59.487Z,88427.50
2023-05-19T10:05:44.519Z,88432.34
2023-05-19T10:08:29.382Z,88428.19
2023-05-19T10:11:14.414Z,88434.81
2023-05-19T10:13:59.495Z,88434.81
2023-05-19T10:16:44.621Z,88416.91
2023-05-19T10:19:29.696Z,88424.25
2023-05-19T10:22:15.074Z,88414.84
2023-05-19T10:25:00.312Z,88424.28
2023-05-19T10:27:45.239Z,88413.34
2023-05-19T10:30:30.213Z,88417.78
2023-05-19T10:33:15.267Z,88416.56
2023-05-19T10:36:00.251Z,88406.31
2023-05-19T10:38:45.202Z,88406.25
2023-05-19T10:41:30.115Z,88408.50
2023-05-19T10:44:15.044Z,88398.94
2023-05-19T10:47:00.086Z,88404.94
2023-05-19T10:49:45.168Z,88406.81
2023-05-19T10:52:30.036Z,88405.84
2023-05-19T10:55:15.164Z,88398.38
2023-05-19T10:58:00.049Z,88401.41
2023-05-19T11:00:45.082Z,88394.91
2023-05-19T11:06:15.556Z,88400.19
2023-05-19T11:09:00.664Z,88396.13
2023-05-19T11:11:45.584Z,88387.78
2023-05-19T11:14:30.661Z,88394.09
2023-05-19T11:17:15.550Z,88386.16
2023-05-19T11:20:00.491Z,88382.31
2023-05-19T11:22:45.324Z,88389.19
2023-05-19T11:25:30.444Z,88378.50
2023-05-19T11:28:15.312Z,88372.03
2023-05-19T11:31:00.324Z,88371.59
2023-05-19T11:33:45.504Z,88374.19
2023-05-19T11:36:30.467Z,88368.81
2023-05-19T11:39:15.635Z,88374.38
2023-05-19T11:42:00.536Z,88371.38
2023-05-19T11:44:45.575Z,88369.97
2023-05-19T11:47:33.989Z,88369.25
2023-05-19T11:50:24.430Z,88369.13
2023-05-19T11:53:09.366Z,88363.59
2023-05-19T11:55:54.518Z,88363.59
2023-05-19T11:58:39.463Z,88364.69
2023-05-19T12:01:24.509Z,88364.81
2023-05-19T12:04:09.504Z,88361.00
2023-05-19T12:06:54.478Z,88368.28
2023-05-19T12:09:39.574Z,88363.91
2023-05-19T12:12:24.406Z,88364.59
2023-05-19T12:15:09.445Z,88370.97
2023-05-19T12:17:54.409Z,88373.09
2023-05-19T12:20:39.374Z,88369.75
2023-05-19T12:23:24.284Z,88373.19
2023-05-19T12:26:09.339Z,88364.94
2023-05-19T12:28:54.132Z,88368.31
2023-05-19T12:31:39.138Z,88370.13
2023-05-19T12:34:24.123Z,88372.16
2023-05-19T12:37:09.078Z,88368.78
2023-05-19T12:39:54.046Z,88367.50
2023-05-19T12:42:38.934Z,88372.66
2023-05-19T12:45:23.919Z,88376.38
2023-05-19T12:48:08.875Z,88371.16
2023-05-19T12:50:53.885Z,88370.88
2023-05-19T12:53:38.803Z,88372.13
2023-05-19T12:56:23.718Z,88373.56
2023-05-19T12:59:08.866Z,88369.25
2023-05-19T13:01:53.780Z,88368.16
2023-05-19T13:04:39.050Z,88371.75
2023-05-19T13:07:23.984Z,88368.00
2023-05-19T13:10:09.039Z,88366.06
2023-05-19T13:12:53.966Z,88359.69
2023-05-19T13:15:38.903Z,88366.34
2023-05-19T13:18:23.996Z,88360.13
2023-05-19T13:21:08.987Z,88353.44
2023-05-19T13:23:54.044Z,88355.81
2023-05-19T13:26:38.936Z,88358.28
2023-05-19T13:29:25.051Z,88355.22
2023-05-19T13:32:10.030Z,88354.41
2023-05-19T13:34:55.069Z,88347.22
2023-05-19T13:37:40.083Z,88349.97
2023-05-19T13:40:24.958Z,88355.59
2023-05-19T13:43:10.101Z,88352.91
2023-05-19T13:45:55.294Z,88353.31
2023-05-19T13:48:40.430Z,88345.13
2023-05-19T13:51:25.734Z,88352.91
2023-05-19T13:54:11.025Z,88352.75
2023-05-19T13:56:56.037Z,88346.13
2023-05-19T13:59:57.221Z,88347.94
2023-05-19T14:02:45.843Z,88345.97
2023-05-19T14:05:30.828Z,88352.63
2023-05-19T14:08:15.814Z,88351.47
2023-05-19T14:11:00.812Z,88351.06
2023-05-19T14:13:45.882Z,88354.13
2023-05-19T14:16:31.132Z,88355.09
2023-05-19T14:19:15.993Z,88347.94
2023-05-19T14:22:01.099Z,88358.31
2023-05-19T14:24:45.914Z,88350.16
2023-05-19T14:27:31.021Z,88354.84
2023-05-19T14:30:16.028Z,88352.34
2023-05-19T14:33:01.200Z,88355.91
2023-05-19T14:35:46.076Z,88349.13
2023-05-19T14:38:30.882Z,88349.16
2023-05-19T14:41:15.976Z,88343.22
2023-05-19T14:44:00.966Z,88347.22
2023-05-19T14:46:46.134Z,88344.06
2023-05-19T14:49:31.073Z,88342.22
2023-05-19T14:52:16.066Z,88341.66
2023-05-19T14:55:01.096Z,88340.50
2023-05-19T14:57:45.933Z,88328.22
2023-05-19T15:00:30.967Z,88326.84
2023-05-19T15:03:15.890Z,88322.53
2023-05-19T15:06:01.013Z,88321.16
2023-05-19T15:08:45.923Z,88330.38
2023-05-19T15:11:31.054Z,88328.72
2023-05-19T15:14:16.034Z,88328.47
2023-05-19T15:17:01.212Z,88326.97
2023-05-19T15:19:46.136Z,88323.25
2023-05-19T15:22:31.018Z,88323.38
2023-05-19T15:25:15.973Z,88322.53
2023-05-19T15:28:00.938Z,88316.59
2023-05-19T15:30:46.051Z,88322.44
2023-05-19T15:33:30.972Z,88312.00
2023-05-19T15:36:16.011Z,88313.94
2023-05-19T15:39:01.036Z,88310.19
2023-05-19T15:41:46.060Z,88302.19
2023-05-19T15:44:31.010Z,88305.66
2023-05-19T15:47:16.053Z,88306.34
2023-05-19T15:50:01.226Z,88303.91
2023-05-19T15:52:46.242Z,88304.56
2023-05-19T15:55:31.343Z,88306.88
2023-05-19T15:58:16.182Z,88306.22
2023-05-19T16:01:01.116Z,88309.78
2023-05-19T16:03:46.380Z,88299.66
2023-05-19T16:06:31.493Z,88303.09
2023-05-19T16:09:16.564Z,88303.81
2023-05-19T16:12:01.425Z,88300.03
2023-05-19T16:14:46.482Z,88302.91
2023-05-19T16:17:31.513Z,88297.84
2023-05-19T16:20:16.574Z,88291.94
2023-05-19T16:23:01.498Z,88297.47
2023-05-19T16:25:46.831Z,88294.97
2023-05-19T16:28:31.688Z,88297.72
2023-05-19T16:31:16.677Z,88297.66
2023-05-19T16:34:01.707Z,88296.69
2023-05-19T16:36:46.628Z,88298.00
2023-05-19T16:39:31.767Z,88300.91
2023-05-19T16:42:16.722Z,88300.22
2023-05-19T16:45:01.786Z,88296.34
2023-05-19T16:47:46.764Z,88297.63
2023-05-19T16:50:31.737Z,88303.44
2023-05-19T16:53:16.834Z,88308.00
2023-05-19T16:56:01.665Z,88310.25
2023-05-19T16:58:46.791Z,88303.94
2023-05-19T17:01:31.814Z,88302.97
2023-05-19T17:04:16.870Z,88301.03
2023-05-19T17:07:01.911Z,88307.91
2023-05-19T17:09:46.816Z,88310.13
2023-05-19T17:12:31.860Z,88308.63
2023-05-19T17:15:16.826Z,88318.59
2023-05-19T17:18:01.982Z,88317.06
2023-05-19T17:20:46.779Z,88320.44
2023-05-19T17:23:31.863Z,88323.53
2023-05-19T17:26:16.858Z,88320.34
2023-05-19T17:29:01.950Z,88323.53
2023-05-19T17:31:47.081Z,88326.31
2023-05-19T17:34:32.011Z,88324.22
2023-05-19T17:37:16.996Z,88331.47
2023-05-19T17:40:01.843Z,88325.81
2023-05-19T17:42:47.049Z,88333.69
2023-05-19T17:45:32.007Z,88336.84
2023-05-19T17:48:17.229Z,88335.19
2023-05-19T17:51:03.141Z,88328.94
2023-05-19T17:53:49.030Z,88331.97
2023-05-19T17:56:34.038Z,88325.03
2023-05-19T17:59:18.893Z,88338.72
2023-05-19T18:02:03.943Z,88341.63
2023-05-19T18:04:48.734Z,88347.00
2023-05-19T18:07:33.864Z,88343.59
2023-05-19T18:10:18.849Z,88338.22
2023-05-19T18:13:03.945Z,88340.25
2023-05-19T18:15:48.792Z,88339.66
2023-05-19T18:18:33.816Z,88346.78
2023-05-19T18:21:18.766Z,88350.09
2023-05-19T18:24:03.645Z,88347.69
2023-05-19T18:26:48.675Z,88354.28
2023-05-19T18:29:33.597Z,88354.97
2023-05-19T18:32:18.640Z,88348.09
2023-05-19T18:35:03.648Z,88358.44
2023-05-19T18:37:48.608Z,88354.41
2023-05-19T18:40:34.051Z,88358.50
2023-05-19T18:43:19.255Z,88354.22
2023-05-19T18:46:04.420Z,88361.56
2023-05-19T18:48:49.194Z,88355.25
2023-05-19T18:51:34.317Z,88367.56
2023-05-19T18:54:19.264Z,88367.31
2023-05-19T18:57:04.356Z,88363.69
2023-05-19T18:59:49.335Z,88366.56
2023-05-19T19:02:34.298Z,88372.31
2023-05-19T19:05:19.274Z,88363.00
2023-05-19T19:08:04.121Z,88369.03
2023-05-19T19:10:49.084Z,88378.28
2023-05-19T19:13:33.960Z,88377.03
2023-05-19T19:16:18.943Z,88381.00
2023-05-19T19:19:03.992Z,88384.63
2023-05-19T19:21:48.951Z,88398.28
2023-05-19T19:24:34.048Z,88386.56
2023-05-19T19:27:18.917Z,88388.66
2023-05-19T19:30:03.972Z,88400.22
2023-05-19T19:32:49.041Z,88393.44
2023-05-19T19:35:33.882Z,88391.97
2023-05-19T19:38:18.797Z,88396.03
2023-05-19T19:41:03.847Z,88401.63
2023-05-19T19:43:48.874Z,88402.81
2023-05-19T19:46:33.858Z,88399.00
2023-05-19T19:49:18.981Z,88405.63
2023-05-19T19:52:03.835Z,88402.81
2023-05-19T19:54:48.955Z,88410.69
2023-05-19T19:57:33.916Z,88409.47
2023-05-19T20:00:18.879Z,88405.63
2023-05-19T20:03:05.832Z,88415.03
2023-05-19T20:05:51.108Z,88410.31
2023-05-19T20:08:36.016Z,88413.97
2023-05-19T20:11:21.096Z,88417.81
2023-05-19T20:14:05.754Z,88417.81
2023-05-19T20:16:50.746Z,88421.97
2023-05-19T20:19:35.705Z,88417.81
2023-05-19T20:22:20.522Z,88418.41
2023-05-19T20:25:05.692Z,88424.03
2023-05-19T20:27:50.699Z,88427.47
2023-05-19T20:30:35.594Z,88426.78
2023-05-19T20:33:20.501Z,88429.25
2023-05-19T20:36:05.330Z,88423.69
2023-05-19T20:38:50.359Z,88428.41
2023-05-19T20:41:35.238Z,88428.72
2023-05-19T20:44:20.276Z,88436.03
2023-05-19T20:47:05.219Z,88434.81
2023-05-19T20:49:50.255Z,88430.97
2023-05-19T20:52:35.297Z,88430.78
2023-05-19T20:55:20.363Z,88430.78
2023-05-19T20:58:05.474Z,88424.72
2023-05-19T21:00:50.236Z,88426.84
2023-05-19T21:03:35.212Z,88440.81
2023-05-19T21:06:20.808Z,88436.09
2023-05-19T21:09:05.888Z,88439.25
2023-05-19T21:11:50.855Z,88428.84
2023-05-19T21:14:35.791Z,88440.25
2023-05-19T21:17:20.902Z,88444.50
2023-05-19T21:20:05.755Z,88445.22
2023-05-19T21:22:50.769Z,88438.13
2023-05-19T21:25:35.752Z,88434.63
2023-05-19T21:28:20.783Z,88435.69
2023-05-19T21:31:05.751Z,88431.31
2023-05-19T21:33:50.688Z,88434.66
2023-05-19T21:36:35.727Z,88426.50
2023-05-19T21:39:20.717Z,88430.31
2023-05-19T21:42:06.008Z,88436.75
2023-05-19T21:44:50.769Z,88430.28
2023-05-19T21:47:35.850Z,88436.91
2023-05-19T21:50:20.775Z,88428.34
2023-05-19T21:53:05.782Z,88436.91
2023-05-19T21:55:50.788Z,88435.53
2023-05-19T21:58:35.754Z,88430.13
2023-05-19T22:01:20.812Z,88430.88
2023-05-19T22:04:05.865Z,88431.06
2023-05-19T22:06:50.706Z,88431.06
2023-05-19T22:09:35.770Z,88427.97
2023-05-19T22:12:20.777Z,88433.53
2023-05-19T22:15:05.768Z,88428.16
2023-05-19T22:17:50.869Z,88432.50
2023-05-19T22:20:35.890Z,88432.53
2023-05-19T22:23:20.815Z,88432.19
2023-05-19T22:26:05.952Z,88429.94
2023-05-19T22:28:50.747Z,88430.78
2023-05-19T22:31:35.842Z,88428.69
2023-05-19T22:34:20.761Z,88424.19
2023-05-19T22:37:05.787Z,88419.47
2023-05-19T22:39:50.802Z,88432.19
2023-05-19T22:42:35.630Z,88429.41
2023-05-19T22:45:20.626Z,88436.06
2023-05-19T22:48:05.574Z,88431.88
2023-05-19T22:50:50.700Z,88432.22
2023-05-19T22:53:35.577Z,88431.16
2023-05-19T22:56:20.678Z,88433.94
2023-05-19T22:59:05.628Z,88433.06
2023-05-19T23:01:50.821Z,88435.84
2023-05-19T23:04:35.880Z,88429.06
2023-05-19T23:07:20.746Z,88427.00
2023-05-19T23:10:05.836Z,88439.00
2023-05-19T23:12:50.761Z,88423.31
2023-05-19T23:15:35.987Z,88423.66
2023-05-19T23:18:20.826Z,88431.84
2023-05-19T23:21:05.730Z,88426.28
2023-05-19T23:23:50.760Z,88411.31
2023-05-19T23:26:35.997Z,88406.75
2023-05-19T23:29:20.972Z,88405.38
2023-05-19T23:32:05.864Z,88404.53
2023-05-19T23:34:51.086Z,88401.03
2023-05-19T23:37:35.952Z,88396.66
2023-05-19T23:40:21.159Z,88391.28
2023-05-19T23:43:06.108Z,88391.63
2023-05-19T23:45:51.431Z,88392.66
2023-05-19T23:48:36.438Z,88390.41
2023-05-19T23:51:21.233Z,88387.94
2023-05-19T23:54:06.216Z,88386.03
2023-05-19T23:56:51.278Z,88396.81
2023-05-19T23:59:36.288Z,88399.44
